createdAt,value
2023-09-13T00:01:24.133Z,70.30
2023-09-13T00:03:53.471Z,70.10
2023-09-13T00:06:20.179Z,69.60
2023-09-13T00:08:46.993Z,69.40
2023-09-13T00:11:16.128Z,70.20
2023-09-13T00:13:43.162Z,70.60
2023-09-13T00:16:10.298Z,71.40
2023-09-13T00:18:37.060Z,71.20
2023-09-13T00:21:03.802Z,71.00
2023-09-13T00:23:30.510Z,71.00
2023-09-13T00:25:57.375Z,71.30
2023-09-13T00:28:26.210Z,71.10
2023-09-13T00:30:53.100Z,70.30
2023-09-13T00:33:22.649Z,69.90
2023-09-13T00:35:49.313Z,70.20
2023-09-13T00:38:16.007Z,70.00
2023-09-13T00:40:42.738Z,70.20
2023-09-13T00:43:12.046Z,70.40
2023-09-13T00:45:39.381Z,70.30
2023-09-13T00:48:12.897Z,70.50
2023-09-13T00:50:52.666Z,70.40
2023-09-13T00:53:20.516Z,70.40
2023-09-13T00:55:52.493Z,70.40
2023-09-13T00:58:20.026Z,70.10
2023-09-13T01:00:54.510Z,69.70
2023-09-13T01:03:25.014Z,69.70
2023-09-13T01:05:56.277Z,70.80
2023-09-13T01:08:23.720Z,71.60
2023-09-13T01:10:52.584Z,71.30
2023-09-13T01:13:22.127Z,71.00
2023-09-13T01:16:10.397Z,70.80
2023-09-13T01:18:51.353Z,71.00
2023-09-13T01:21:30.431Z,71.60
2023-09-13T01:24:18.684Z,71.60
2023-09-13T01:26:51.777Z,71.90
2023-09-13T01:29:21.087Z,71.70
2023-09-13T01:31:50.726Z,71.30
2023-09-13T01:34:17.537Z,71.40
2023-09-13T01:36:46.867Z,71.80
2023-09-13T01:39:13.665Z,72.10
2023-09-13T01:41:43.105Z,72.20
2023-09-13T01:44:10.540Z,72.30
2023-09-13T01:46:42.790Z,72.00
2023-09-13T01:49:11.344Z,72.80
2023-09-13T01:51:43.788Z,72.70
2023-09-13T01:54:11.087Z,72.70
2023-09-13T01:56:37.776Z,72.30
2023-09-13T01:59:06.642Z,72.10
2023-09-13T02:01:35.672Z,71.70
2023-09-13T02:04:04.647Z,71.00
2023-09-13T02:06:33.537Z,70.80
2023-09-13T02:09:02.653Z,70.90
2023-09-13T02:11:31.601Z,71.00
2023-09-13T02:13:58.348Z,71.10
2023-09-13T02:16:26.061Z,71.10
2023-09-13T02:18:52.949Z,71.50
2023-09-13T02:21:22.160Z,71.20
2023-09-13T02:23:48.875Z,71.10
2023-09-13T02:26:25.588Z,71.90
2023-09-13T02:28:55.280Z,71.80
2023-09-13T02:31:28.773Z,72.30
2023-09-13T02:33:58.225Z,71.60
2023-09-13T02:36:24.973Z,71.50
2023-09-13T02:38:53.191Z,72.00
2023-09-13T02:41:19.848Z,72.10
2023-09-13T02:43:46.928Z,71.40
2023-09-13T02:46:13.985Z,71.70
2023-09-13T02:48:40.809Z,71.20
2023-09-13T02:51:13.345Z,70.30
2023-09-13T02:53:40.170Z,70.40
2023-09-13T02:56:09.824Z,70.40
2023-09-13T02:58:36.682Z,70.20
2023-09-13T03:01:06.328Z,71.30
2023-09-13T03:03:33.760Z,71.20
2023-09-13T03:06:12.723Z,71.20
2023-09-13T03:08:39.495Z,71.10
2023-09-13T03:11:13.705Z,70.90
2023-09-13T03:13:40.396Z,70.60
2023-09-13T03:16:25.980Z,70.50
2023-09-13T03:18:56.172Z,71.40
2023-09-13T03:21:25.757Z,72.10
2023-09-13T03:23:52.722Z,72.20
2023-09-13T03:26:22.098Z,72.30
2023-09-13T03:28:50.892Z,71.40
2023-09-13T03:31:20.079Z,71.50
2023-09-13T03:33:49.220Z,71.40
2023-09-13T03:36:17.216Z,71.40
2023-09-13T03:38:49.929Z,71.60
2023-09-13T03:41:23.060Z,72.00
2023-09-13T03:43:50.376Z,71.90
2023-09-13T03:46:17.187Z,72.00
2023-09-13T03:48:44.076Z,71.60
2023-09-13T03:51:13.269Z,71.60
2023-09-13T03:53:40.093Z,71.90
2023-09-13T03:56:07.301Z,71.80
2023-09-13T03:58:36.861Z,71.40
2023-09-13T04:01:06.393Z,71.50
2023-09-13T04:03:37.475Z,71.70
2023-09-13T04:06:09.413Z,71.50
2023-09-13T04:08:36.184Z,71.90
2023-09-13T04:11:03.249Z,71.10
2023-09-13T04:13:31.777Z,71.10
2023-09-13T04:16:09.040Z,70.70
2023-09-13T04:18:35.742Z,70.30
2023-09-13T04:21:04.757Z,70.60
2023-09-13T04:23:31.502Z,70.40
2023-09-13T04:26:03.215Z,70.50
2023-09-13T04:28:30.684Z,70.40
2023-09-13T04:31:02.133Z,70.90
2023-09-13T04:33:53.739Z,71.10
2023-09-13T04:36:24.698Z,71.10
2023-09-13T04:38:53.572Z,71.60
2023-09-13T04:41:20.303Z,71.30
2023-09-13T04:43:50.117Z,71.50
2023-09-13T04:46:19.283Z,71.50
2023-09-13T04:48:46.136Z,71.70
2023-09-13T04:51:12.960Z,72.10
2023-09-13T04:53:39.635Z,73.00
2023-09-13T04:56:06.447Z,72.90
2023-09-13T04:58:38.279Z,72.30
2023-09-13T05:01:08.223Z,71.80
2023-09-13T05:03:35.092Z,72.10
2023-09-13T05:06:01.925Z,71.80
2023-09-13T05:08:28.606Z,72.40
2023-09-13T05:10:56.255Z,72.00
2023-09-13T05:13:25.947Z,71.90
2023-09-13T05:15:52.740Z,72.00
2023-09-13T05:18:19.493Z,72.00
2023-09-13T05:20:46.167Z,72.20
2023-09-13T05:23:12.861Z,72.50
2023-09-13T05:25:56.744Z,72.70
2023-09-13T05:28:24.126Z,72.40
2023-09-13T05:30:50.920Z,71.90
2023-09-13T05:33:20.000Z,71.50
2023-09-13T05:35:46.671Z,72.10
2023-09-13T05:38:18.386Z,72.00
2023-09-13T05:40:45.169Z,71.70
2023-09-13T05:43:11.946Z,70.70
2023-09-13T05:45:41.217Z,70.50
2023-09-13T05:48:10.548Z,71.70
2023-09-13T05:50:37.340Z,71.90
2023-09-13T05:53:04.176Z,72.50
2023-09-13T05:55:33.413Z,72.10
2023-09-13T05:58:02.615Z,72.30
2023-09-13T06:00:29.333Z,72.40
2023-09-13T06:02:56.032Z,72.20
2023-09-13T06:05:26.103Z,72.40
2023-09-13T06:07:52.776Z,72.10
2023-09-13T06:10:21.979Z,72.20
2023-09-13T06:12:48.780Z,72.90
2023-09-13T06:15:15.478Z,73.80
2023-09-13T06:17:42.309Z,74.10
2023-09-13T06:20:11.604Z,73.10
2023-09-13T06:22:38.750Z,72.70
2023-09-13T06:25:09.485Z,73.10
2023-09-13T06:27:39.041Z,72.90
2023-09-13T06:30:08.761Z,72.70
2023-09-13T06:32:41.702Z,72.70
2023-09-13T06:35:16.324Z,72.20
2023-09-13T06:37:46.197Z,72.40
2023-09-13T06:40:16.511Z,72.30
2023-09-13T06:42:59.419Z,73.40
2023-09-13T06:45:30.193Z,73.60
2023-09-13T06:48:01.937Z,73.00
2023-09-13T06:53:22.541Z,72.60
2023-09-13T06:55:48.744Z,72.90
2023-09-13T06:58:21.872Z,72.70
2023-09-13T07:03:22.621Z,72.00
2023-09-13T07:05:52.643Z,72.10
2023-09-13T07:08:21.685Z,72.40
2023-09-13T07:10:48.832Z,72.20
2023-09-13T07:13:15.580Z,72.20
2023-09-13T07:15:42.288Z,72.50
2023-09-13T07:18:11.390Z,73.00
2023-09-13T07:20:40.313Z,73.20
2023-09-13T07:23:07.370Z,72.50
2023-09-13T07:25:34.154Z,72.90
2023-09-13T07:28:01.234Z,72.70
2023-09-13T07:30:28.915Z,72.30
2023-09-13T07:32:55.730Z,72.60
2023-09-13T07:35:27.453Z,72.60
2023-09-13T07:37:56.884Z,72.20
2023-09-13T07:40:25.516Z,72.30
2023-09-13T07:42:52.218Z,71.70
2023-09-13T07:45:19.420Z,71.60
2023-09-13T07:47:48.712Z,71.60
2023-09-13T07:50:38.193Z,72.30
2023-09-13T07:53:06.572Z,71.80
2023-09-13T07:55:36.500Z,71.90
2023-09-13T07:58:04.717Z,71.80
2023-09-13T08:00:31.661Z,71.40
2023-09-13T08:03:00.419Z,71.00
2023-09-13T08:05:27.587Z,71.30
2023-09-13T08:07:56.668Z,71.20
2023-09-13T08:10:23.685Z,70.60
2023-09-13T08:12:55.620Z,70.40
2023-09-13T08:15:30.901Z,70.30
2023-09-13T08:18:05.493Z,70.40
2023-09-13T08:20:32.496Z,71.30
2023-09-13T08:22:59.415Z,71.50
2023-09-13T08:25:26.334Z,71.80
2023-09-13T08:27:55.789Z,72.20
2023-09-13T08:30:24.620Z,71.80
2023-09-13T08:32:51.625Z,71.80
2023-09-13T08:35:18.431Z,71.30
2023-09-13T08:37:49.205Z,71.20
2023-09-13T08:40:18.284Z,71.10
2023-09-13T08:42:45.888Z,71.40
2023-09-13T08:45:16.771Z,71.40
2023-09-13T08:47:57.781Z,71.60
2023-09-13T08:50:28.234Z,71.80
2023-09-13T08:52:58.911Z,71.60
2023-09-13T08:55:26.944Z,72.10
2023-09-13T08:57:55.332Z,71.90
2023-09-13T09:00:26.613Z,71.90
2023-09-13T09:02:55.913Z,71.50
2023-09-13T09:05:28.120Z,72.30
2023-09-13T09:08:00.585Z,72.20
2023-09-13T09:10:27.952Z,72.00
2023-09-13T09:13:02.038Z,72.30
2023-09-13T09:15:29.994Z,71.40
2023-09-13T09:17:59.982Z,71.10
2023-09-13T09:20:29.932Z,71.30
2023-09-13T09:22:59.968Z,70.80
2023-09-13T09:25:27.171Z,70.60
2023-09-13T09:27:53.939Z,70.30
2023-09-13T09:30:30.955Z,70.30
2023-09-13T09:33:07.783Z,70.70
2023-09-13T09:35:36.297Z,70.40
2023-09-13T09:38:06.825Z,70.90
2023-09-13T09:40:39.946Z,70.50
2023-09-13T09:43:08.992Z,70.80
2023-09-13T09:45:38.446Z,70.00
2023-09-13T09:48:07.957Z,69.50
2023-09-13T09:50:38.737Z,69.30
2023-09-13T09:53:15.096Z,69.90
2023-09-13T09:55:46.465Z,69.70
2023-09-13T09:58:14.130Z,69.60
2023-09-13T10:00:49.237Z,69.10
2023-09-13T10:03:19.269Z,68.70
2023-09-13T10:06:16.352Z,68.50
2023-09-13T10:08:48.994Z,68.40
2023-09-13T10:11:25.175Z,68.50
2023-09-13T10:13:54.125Z,67.90
2023-09-13T10:16:27.761Z,68.20
2023-09-13T10:18:56.835Z,68.60
2023-09-13T10:21:34.051Z,68.30
2023-09-13T10:24:07.636Z,67.80
2023-09-13T10:26:35.738Z,68.00
2023-09-13T10:29:26.043Z,68.70
2023-09-13T10:31:58.800Z,68.80
2023-09-13T10:34:28.294Z,69.20
2023-09-13T10:37:01.208Z,69.10
2023-09-13T10:40:17.092Z,69.40
2023-09-13T10:42:47.257Z,70.60
2023-09-13T10:45:18.714Z,70.80
2023-09-13T10:47:49.842Z,71.30
2023-09-13T10:50:22.664Z,72.10
2023-09-13T10:52:50.597Z,71.50
2023-09-13T10:55:17.854Z,72.00
2023-09-13T10:57:44.732Z,71.90
2023-09-13T11:00:13.993Z,72.60
2023-09-13T11:02:45.285Z,73.80
2023-09-13T11:05:15.276Z,72.90
2023-09-13T11:07:49.724Z,73.00
2023-09-13T11:10:21.206Z,73.00
2023-09-13T11:12:50.756Z,72.80
2023-09-13T11:15:21.848Z,72.20
2023-09-13T11:17:49.152Z,71.60
2023-09-13T11:20:39.434Z,72.50
2023-09-13T11:26:04.442Z,72.10
2023-09-13T11:28:45.245Z,71.50
2023-09-13T11:31:19.030Z,72.20
2023-09-13T11:33:52.445Z,71.90
2023-09-13T11:36:19.359Z,71.40
2023-09-13T11:38:50.388Z,71.20
2023-09-13T11:41:18.749Z,71.80
2023-09-13T11:44:00.796Z,71.10
2023-09-13T11:46:37.150Z,71.50
2023-09-13T11:49:05.675Z,70.70
2023-09-13T11:54:16.741Z,69.70
2023-09-13T11:56:50.117Z,70.00
2023-09-13T11:59:31.207Z,69.20
2023-09-13T12:02:01.993Z,68.60
2023-09-13T12:07:02.994Z,68.60
2023-09-13T12:09:32.020Z,67.60
2023-09-13T12:12:06.232Z,67.70
2023-09-13T12:17:09.006Z,67.00
2023-09-13T12:19:37.682Z,66.60
2023-09-13T12:22:06.977Z,65.90
2023-09-13T12:24:33.704Z,65.90
2023-09-13T12:27:00.485Z,67.10
2023-09-13T12:29:29.661Z,67.10
2023-09-13T12:32:01.453Z,66.70
2023-09-13T12:34:30.566Z,67.10
2023-09-13T12:36:59.962Z,66.90
2023-09-13T12:39:26.723Z,67.20
2023-09-13T12:41:53.528Z,67.30
2023-09-13T12:44:20.986Z,67.20
2023-09-13T12:46:52.503Z,67.60
2023-09-13T12:49:19.517Z,67.30
2023-09-13T12:51:46.335Z,67.10
2023-09-13T12:54:17.714Z,66.90
2023-09-13T12:56:44.536Z,66.60
2023-09-13T12:59:13.557Z,66.60
2023-09-13T13:01:40.396Z,66.90
2023-09-13T13:04:11.801Z,66.40
2023-09-13T13:07:00.764Z,66.10
2023-09-13T13:09:30.626Z,66.30
2023-09-13T13:12:01.131Z,65.80
2023-09-13T13:14:30.725Z,65.70
2023-09-13T13:17:02.641Z,65.30
2023-09-13T13:19:55.455Z,65.60
2023-09-13T13:22:25.697Z,66.30
2023-09-13T13:24:55.852Z,66.50
2023-09-13T13:27:29.580Z,66.10
2023-09-13T13:30:06.576Z,65.40
2023-09-13T13:32:33.909Z,65.30
2023-09-13T13:35:06.516Z,65.10
2023-09-13T13:38:04.847Z,64.50
2023-09-13T13:40:34.607Z,63.80
2023-09-13T13:43:03.734Z,63.60
2023-09-13T13:45:32.190Z,63.70
2023-09-13T13:47:59.596Z,64.10
2023-09-13T13:50:27.220Z,63.30
2023-09-13T13:52:54.416Z,63.00
2023-09-13T13:55:23.872Z,62.90
2023-09-13T13:57:54.447Z,62.40
2023-09-13T14:00:21.545Z,61.60
2023-09-13T14:02:48.929Z,61.70
2023-09-13T14:05:16.120Z,60.20
2023-09-13T14:07:45.418Z,60.10
2023-09-13T14:10:15.128Z,60.10
2023-09-13T14:12:45.270Z,59.70
2023-09-13T14:15:16.539Z,60.10
2023-09-13T14:17:56.335Z,60.00
2023-09-13T14:20:24.562Z,59.90
2023-09-13T14:22:52.847Z,60.00
2023-09-13T14:25:25.519Z,60.20
2023-09-13T14:28:10.050Z,59.70
2023-09-13T14:33:26.658Z,58.80
2023-09-13T14:35:56.478Z,58.60
2023-09-13T14:38:26.868Z,58.80
2023-09-13T14:40:58.186Z,59.40
2023-09-13T14:43:25.073Z,59.40
2023-09-13T14:45:54.146Z,58.70
2023-09-13T14:48:21.139Z,59.50
2023-09-13T14:50:50.158Z,59.10
2023-09-13T14:53:16.906Z,59.80
2023-09-13T14:55:43.806Z,59.30
2023-09-13T14:58:12.665Z,59.60
2023-09-13T15:00:41.707Z,58.70
2023-09-13T15:03:08.685Z,59.30
2023-09-13T15:05:35.695Z,59.40
2023-09-13T15:08:02.483Z,59.50
2023-09-13T15:10:30.924Z,60.20
2023-09-13T15:12:58.553Z,60.40
2023-09-13T15:15:25.437Z,59.40
2023-09-13T15:17:53.797Z,59.50
2023-09-13T15:20:20.868Z,59.30
2023-09-13T15:22:47.660Z,59.00
2023-09-13T15:25:14.945Z,59.20
2023-09-13T15:27:41.779Z,59.50
2023-09-13T15:30:09.691Z,59.10
2023-09-13T15:32:36.497Z,59.10
2023-09-13T15:35:06.940Z,58.90
2023-09-13T15:37:35.769Z,58.50
2023-09-13T15:40:10.538Z,58.40
2023-09-13T15:42:38.277Z,58.00
2023-09-13T15:45:09.691Z,58.10
2023-09-13T15:47:38.190Z,57.80
2023-09-13T15:50:05.732Z,57.30
2023-09-13T15:52:33.184Z,57.10
2023-09-13T15:55:02.569Z,57.10
2023-09-13T15:57:31.962Z,57.10
2023-09-13T16:00:01.225Z,56.80
2023-09-13T16:02:31.376Z,56.80
2023-09-13T16:04:58.900Z,56.90
2023-09-13T16:07:29.845Z,57.30
2023-09-13T16:09:56.930Z,56.80
2023-09-13T16:12:23.683Z,56.70
2023-09-13T16:14:52.901Z,56.40
2023-09-13T16:17:19.638Z,56.60
2023-09-13T16:19:48.577Z,56.10
2023-09-13T16:22:15.471Z,55.90
2023-09-13T16:24:47.264Z,55.80
2023-09-13T16:27:14.053Z,55.00
2023-09-13T16:29:40.868Z,54.70
2023-09-13T16:32:07.779Z,54.90
2023-09-13T16:34:36.679Z,54.70
2023-09-13T16:37:05.658Z,54.80
2023-09-13T16:39:32.411Z,55.00
2023-09-13T16:42:01.585Z,54.90
2023-09-13T16:44:28.291Z,55.30
2023-09-13T16:46:55.054Z,55.90
2023-09-13T16:49:21.983Z,55.90
2023-09-13T16:51:48.749Z,55.50
2023-09-13T16:54:20.173Z,55.60
2023-09-13T16:56:51.717Z,56.10
2023-09-13T16:59:20.986Z,56.90
2023-09-13T17:01:48.167Z,56.60
2023-09-13T17:04:15.149Z,57.20
2023-09-13T17:06:42.507Z,57.20
2023-09-13T17:09:09.511Z,57.10
2023-09-13T17:11:36.847Z,57.00
2023-09-13T17:14:08.564Z,57.50
2023-09-13T17:16:37.634Z,57.90
2023-09-13T17:19:04.487Z,58.50
2023-09-13T17:21:31.784Z,58.50
2023-09-13T17:24:01.186Z,58.90
2023-09-13T17:26:30.216Z,59.00
2023-09-13T17:28:57.012Z,59.20
2023-09-13T17:31:26.373Z,59.80
2023-09-13T17:33:53.384Z,60.60
2023-09-13T17:36:32.206Z,61.40
2023-09-13T17:39:14.715Z,61.40
2023-09-13T17:41:42.967Z,61.50
2023-09-13T17:44:09.722Z,60.90
2023-09-13T17:46:36.857Z,60.50
2023-09-13T17:49:06.240Z,60.30
2023-09-13T17:51:33.302Z,60.00
2023-09-13T17:54:01.798Z,59.60
2023-09-13T17:56:29.303Z,59.20
2023-09-13T17:58:56.001Z,59.10
2023-09-13T18:01:23.904Z,59.20
2023-09-13T18:03:50.813Z,59.20
2023-09-13T18:06:20.055Z,59.50
2023-09-13T18:08:47.043Z,59.50
2023-09-13T18:11:16.522Z,59.30
2023-09-13T18:13:45.016Z,59.40
2023-09-13T18:16:14.373Z,59.10
2023-09-13T18:18:41.377Z,59.10
2023-09-13T18:21:08.346Z,59.00
2023-09-13T18:23:36.229Z,58.90
2023-09-13T18:26:05.305Z,58.80
2023-09-13T18:28:32.650Z,58.90
2023-09-13T18:31:08.701Z,58.80
2023-09-13T18:33:37.381Z,58.80
2023-09-13T18:36:05.923Z,58.80
2023-09-13T18:38:34.932Z,58.70
2023-09-13T18:41:01.646Z,58.70
2023-09-13T18:43:28.408Z,58.70
2023-09-13T18:46:14.331Z,58.60
2023-09-13T18:48:46.247Z,58.30
2023-09-13T18:51:13.125Z,58.20
2023-09-13T18:53:44.608Z,58.10
2023-09-13T18:56:13.342Z,58.30
2023-09-13T18:58:40.057Z,58.40
2023-09-13T19:01:06.916Z,58.40
2023-09-13T19:03:35.992Z,58.70
2023-09-13T19:06:07.713Z,58.90
2023-09-13T19:08:34.524Z,59.30
2023-09-13T19:11:01.401Z,59.30
2023-09-13T19:13:30.747Z,59.40
2023-09-13T19:16:02.052Z,59.40
2023-09-13T19:18:33.319Z,59.70
2023-09-13T19:21:00.685Z,59.80
2023-09-13T19:23:30.861Z,59.90
2023-09-13T19:26:02.319Z,59.90
2023-09-13T19:28:34.510Z,59.90
2023-09-13T19:31:03.865Z,59.90
2023-09-13T19:33:33.012Z,60.00
2023-09-13T19:36:05.828Z,60.20
2023-09-13T19:38:35.986Z,60.20
2023-09-13T19:41:04.650Z,60.20
2023-09-13T19:43:36.812Z,60.30
2023-09-13T19:46:04.856Z,60.20
2023-09-13T19:48:34.564Z,60.10
2023-09-13T19:51:11.892Z,60.10
2023-09-13T19:53:41.208Z,60.10
2023-09-13T19:56:09.938Z,60.10
2023-09-13T19:58:37.629Z,60.00
2023-09-13T20:09:38.730Z,60.50
2023-09-13T20:21:34.946Z,61.00
2023-09-13T20:24:02.335Z,60.90
2023-09-13T20:26:29.943Z,60.80
2023-09-13T20:28:57.109Z,60.90
2023-09-13T20:31:26.909Z,61.10
2023-09-13T20:33:55.227Z,60.90
2023-09-13T20:36:23.179Z,61.00
2023-09-13T20:38:50.515Z,60.70
2023-09-13T20:41:17.675Z,60.80
2023-09-13T20:43:45.686Z,60.70
2023-09-13T20:46:13.138Z,60.70
2023-09-13T20:48:40.733Z,60.80
2023-09-13T20:51:07.991Z,60.80
2023-09-13T20:53:35.523Z,60.90
2023-09-13T20:56:02.699Z,61.10
2023-09-13T20:58:29.503Z,61.30
2023-09-13T21:00:56.425Z,61.30
2023-09-13T21:03:23.466Z,61.30
2023-09-13T21:05:55.539Z,61.20
2023-09-13T21:08:22.486Z,61.20
2023-09-13T21:10:49.267Z,61.20
2023-09-13T21:13:16.035Z,61.00
2023-09-13T21:15:42.965Z,61.00
2023-09-13T21:18:12.309Z,61.10
2023-09-13T21:20:39.016Z,61.10
2023-09-13T21:23:08.785Z,61.10
2023-09-13T21:25:35.562Z,61.00
2023-09-13T21:28:05.021Z,60.90
2023-09-13T21:30:36.424Z,61.10
2023-09-13T21:33:03.314Z,60.60
2023-09-13T21:35:30.373Z,60.20
2023-09-13T21:37:57.644Z,60.20
2023-09-13T21:40:26.930Z,60.00
2023-09-13T21:42:53.737Z,59.90
2023-09-13T21:45:22.803Z,60.10
2023-09-13T21:47:50.044Z,59.80
2023-09-13T21:50:16.876Z,59.80
2023-09-13T21:52:43.613Z,60.00
2023-09-13T21:55:10.513Z,60.00
2023-09-13T21:57:40.368Z,60.10
2023-09-13T22:00:17.585Z,60.00
2023-09-13T22:02:47.084Z,59.70
2023-09-13T22:05:17.034Z,59.40
2023-09-13T22:07:46.156Z,59.30
2023-09-13T22:10:13.675Z,59.50
2023-09-13T22:12:40.618Z,59.60
2023-09-13T22:15:08.312Z,59.60
2023-09-13T22:17:36.258Z,59.40
2023-09-13T22:20:05.945Z,59.50
2023-09-13T22:22:35.143Z,59.90
2023-09-13T22:25:04.272Z,60.00
2023-09-13T22:27:32.620Z,60.30
2023-09-13T22:29:59.493Z,59.90
2023-09-13T22:32:28.251Z,60.00
2023-09-13T22:34:55.194Z,60.10
2023-09-13T22:37:22.062Z,60.30
2023-09-13T22:39:49.007Z,60.50
2023-09-13T22:42:16.010Z,60.40
2023-09-13T22:44:43.022Z,60.40
2023-09-13T22:47:11.959Z,60.30
2023-09-13T22:49:40.925Z,60.50
2023-09-13T22:52:07.909Z,60.70
2023-09-13T22:54:34.858Z,60.10
2023-09-13T22:57:01.674Z,59.90
2023-09-13T22:59:28.616Z,60.10
2023-09-13T23:02:00.275Z,60.30
2023-09-13T23:04:27.268Z,59.90
2023-09-13T23:06:54.236Z,60.10
2023-09-13T23:09:20.921Z,60.20
2023-09-13T23:11:48.873Z,60.30
2023-09-13T23:14:16.382Z,60.50
2023-09-13T23:16:48.361Z,60.40
2023-09-13T23:19:15.149Z,60.50
2023-09-13T23:21:41.935Z,59.90
2023-09-13T23:24:16.241Z,59.80
2023-09-13T23:26:43.957Z,59.80
2023-09-13T23:29:13.691Z,60.00
2023-09-13T23:31:40.692Z,59.60
2023-09-13T23:34:07.488Z,59.80
2023-09-13T23:36:37.434Z,59.90
2023-09-13T23:39:07.734Z,59.90
2023-09-13T23:41:36.580Z,60.50
2023-09-13T23:44:04.079Z,60.60
2023-09-13T23:46:30.872Z,60.80
2023-09-13T23:48:57.833Z,60.60
2023-09-13T23:51:26.729Z,60.30
2023-09-13T23:53:55.581Z,60.50
2023-09-13T23:56:24.658Z,60.60
2023-09-13T23:58:53.265Z,60.70
